createdAt,value
2023-03-23T00:03:27.758Z,8.90
2023-03-23T00:09:31.281Z,8.80
2023-03-23T00:15:34.756Z,8.90
2023-03-23T00:21:40.082Z,8.80
2023-03-23T00:27:43.728Z,8.70
2023-03-23T00:33:46.192Z,8.70
2023-03-23T00:39:48.908Z,8.60
2023-03-23T00:45:54.352Z,8.60
2023-03-23T00:51:58.962Z,8.60
2023-03-23T00:58:02.167Z,8.60
2023-03-23T01:04:08.160Z,8.60
2023-03-23T01:10:14.031Z,8.50
2023-03-23T01:16:16.752Z,8.50
2023-03-23T01:22:19.010Z,8.50
2023-03-23T01:28:21.944Z,8.50
2023-03-23T01:34:24.894Z,8.60
2023-03-23T01:40:28.460Z,8.50
2023-03-23T01:46:35.514Z,8.40
2023-03-23T01:52:38.230Z,8.40
2023-03-23T01:58:40.666Z,8.40
2023-03-23T02:04:43.907Z,8.50
2023-03-23T02:10:46.682Z,8.50
2023-03-23T02:17:16.528Z,8.40
2023-03-23T02:23:26.401Z,8.30
2023-03-23T02:29:50.031Z,8.30
2023-03-23T02:36:21.542Z,8.30
2023-03-23T02:42:33.289Z,8.40
2023-03-23T02:48:37.120Z,8.50
2023-03-23T02:54:41.206Z,8.40
2023-03-23T03:00:45.481Z,8.40
2023-03-23T03:06:59.579Z,8.50
2023-03-23T03:13:12.046Z,8.50
2023-03-23T03:19:40.087Z,8.50
2023-03-23T03:25:48.605Z,8.40
2023-03-23T03:32:00.148Z,8.40
2023-03-23T03:38:10.365Z,8.40
2023-03-23T03:44:12.853Z,8.40
2023-03-23T03:50:17.930Z,8.30
2023-03-23T03:56:21.305Z,8.10
2023-03-23T04:02:33.001Z,8.20
2023-03-23T04:08:37.125Z,8.00
2023-03-23T04:14:40.231Z,7.90
2023-03-23T04:20:44.049Z,7.80
2023-03-23T04:26:46.628Z,7.80
2023-03-23T04:32:58.078Z,7.80
2023-03-23T04:39:01.779Z,7.80
2023-03-23T04:45:06.979Z,7.80
2023-03-23T04:51:16.005Z,7.90
2023-03-23T04:57:21.418Z,8.00
2023-03-23T05:03:43.622Z,8.20
2023-03-23T05:09:51.054Z,8.30
2023-03-23T05:15:57.591Z,8.40
2023-03-23T05:22:04.672Z,8.40
2023-03-23T05:28:20.301Z,8.50
2023-03-23T05:34:22.879Z,8.70
2023-03-23T05:40:32.693Z,9.10
2023-03-23T05:46:41.836Z,9.40
2023-03-23T05:52:44.155Z,9.50
2023-03-23T05:58:48.428Z,9.70
2023-03-23T06:04:50.930Z,9.90
2023-03-23T06:10:58.992Z,10.20
2023-03-23T06:17:02.125Z,10.40
2023-03-23T06:23:05.350Z,10.60
2023-03-23T06:29:12.734Z,10.70
2023-03-23T06:35:20.145Z,10.80
2023-03-23T06:41:41.565Z,10.90
2023-03-23T06:47:45.043Z,11.00
2023-03-23T06:53:48.561Z,11.30
2023-03-23T06:59:51.577Z,12.30
2023-03-23T07:05:56.225Z,16.50
2023-03-23T07:12:03.447Z,19.30
2023-03-23T07:18:13.507Z,21.30
2023-03-23T07:24:20.920Z,22.40
2023-03-23T07:30:41.574Z,22.80
2023-03-23T07:36:46.414Z,22.60
2023-03-23T07:42:54.905Z,24.60
2023-03-23T07:49:07.127Z,25.70
2023-03-23T07:55:18.842Z,24.70
2023-03-23T08:01:30.729Z,24.90
2023-03-23T08:08:00.184Z,25.30
2023-03-23T08:14:30.043Z,25.60
2023-03-23T08:21:01.184Z,26.60
2023-03-23T08:27:26.946Z,27.50
2023-03-23T08:33:45.744Z,27.60
2023-03-23T08:40:25.355Z,27.80
2023-03-23T08:46:46.775Z,28.50
2023-03-23T08:53:09.836Z,28.30
2023-03-23T08:59:35.194Z,28.50
2023-03-23T09:06:07.186Z,28.30
2023-03-23T09:12:22.171Z,28.80
2023-03-23T09:18:25.212Z,28.10
2023-03-23T09:24:28.274Z,28.30
2023-03-23T09:30:33.400Z,29.30
2023-03-23T09:36:40.299Z,29.30
2023-03-23T09:42:56.500Z,29.10
2023-03-23T09:49:06.668Z,27.80
2023-03-23T09:55:13.092Z,27.70
2023-03-23T10:01:21.232Z,28.20
2023-03-23T10:07:27.162Z,28.10
2023-03-23T10:13:39.608Z,28.10
2023-03-23T10:19:50.892Z,28.30
2023-03-23T10:26:01.188Z,28.70
2023-03-23T10:32:15.538Z,28.50
2023-03-23T10:38:23.132Z,28.30
2023-03-23T10:44:29.919Z,28.20
2023-03-23T10:50:36.419Z,28.20
2023-03-23T10:56:58.097Z,27.80
2023-03-23T11:03:07.693Z,28.30
2023-03-23T11:09:15.837Z,28.70
2023-03-23T11:15:24.342Z,28.90
2023-03-23T11:21:28.022Z,29.00
2023-03-23T11:27:30.847Z,24.20
2023-03-23T11:34:06.344Z,21.10
2023-03-23T11:40:14.916Z,20.10
2023-03-23T11:46:23.908Z,19.70
2023-03-23T11:52:45.050Z,25.30
2023-03-23T11:58:47.590Z,26.80
2023-03-23T12:05:11.973Z,27.40
2023-03-23T12:11:33.485Z,25.60
2023-03-23T12:18:01.622Z,25.20
2023-03-23T12:24:53.904Z,26.90
2023-03-23T12:31:13.276Z,26.40
2023-03-23T12:37:21.184Z,26.40
2023-03-23T12:43:33.802Z,25.10
2023-03-23T12:49:52.370Z,25.70
2023-03-23T12:56:13.118Z,25.10
2023-03-23T13:02:31.146Z,24.60
2023-03-23T13:08:39.452Z,24.70
2023-03-23T13:14:51.737Z,25.20
2023-03-23T13:21:33.609Z,24.70
2023-03-23T13:27:37.397Z,23.80
2023-03-23T13:33:40.222Z,22.60
2023-03-23T13:39:57.382Z,22.90
2023-03-23T13:46:08.768Z,22.60
2023-03-23T13:52:36.915Z,23.10
2023-03-23T13:58:48.737Z,22.00
2023-03-23T14:04:52.446Z,20.70
2023-03-23T14:11:07.189Z,19.40
2023-03-23T14:17:23.197Z,18.40
2023-03-23T14:23:26.125Z,19.20
2023-03-23T14:29:28.665Z,18.90
2023-03-23T14:35:32.432Z,18.50
2023-03-23T14:41:36.648Z,18.40
2023-03-23T14:47:48.961Z,18.20
2023-03-23T14:53:54.531Z,17.90
2023-03-23T14:59:57.499Z,17.70
2023-03-23T15:06:04.191Z,17.40
2023-03-23T15:12:07.026Z,17.20
2023-03-23T15:18:27.712Z,17.00
2023-03-23T15:24:36.358Z,16.80
2023-03-23T15:30:49.181Z,16.70
2023-03-23T15:37:04.417Z,16.60
2023-03-23T15:43:28.689Z,16.40
2023-03-23T15:49:31.526Z,16.20
2023-03-23T15:55:39.428Z,16.00
2023-03-23T16:01:45.518Z,15.80
2023-03-23T16:07:48.043Z,15.60
2023-03-23T16:13:50.374Z,15.40
2023-03-23T16:19:52.992Z,15.20
2023-03-23T16:25:55.368Z,15.00
2023-03-23T16:31:57.983Z,14.80
2023-03-23T16:38:07.772Z,14.70
2023-03-23T16:44:11.440Z,14.50
2023-03-23T16:50:19.046Z,14.40
2023-03-23T16:56:21.569Z,14.30
2023-03-23T17:02:24.063Z,14.20
2023-03-23T17:08:26.439Z,14.10
2023-03-23T17:14:28.964Z,14.00
2023-03-23T17:20:32.046Z,13.80
2023-03-23T17:26:34.280Z,13.70
2023-03-23T17:32:37.145Z,13.60
2023-03-23T17:38:39.347Z,13.60
2023-03-23T17:44:42.481Z,13.50
2023-03-23T17:50:49.265Z,13.40
2023-03-23T17:56:53.068Z,13.40
2023-03-23T18:02:56.962Z,13.40
2023-03-23T18:08:59.634Z,13.40
2023-03-23T18:15:02.146Z,13.30
2023-03-23T18:21:08.314Z,13.30
2023-03-23T18:27:10.596Z,13.20
2023-03-23T18:33:13.418Z,13.10
2023-03-23T18:39:16.395Z,13.00
2023-03-23T18:45:18.790Z,12.90
2023-03-23T18:51:21.143Z,12.80
2023-03-23T18:57:24.578Z,12.80
2023-03-23T19:03:27.111Z,12.80
2023-03-23T19:09:30.270Z,12.70
2023-03-23T19:15:32.697Z,12.60
2023-03-23T19:21:35.466Z,12.50
2023-03-23T19:28:03.665Z,12.50
2023-03-23T19:34:00.989Z,12.40
2023-03-23T19:40:12.764Z,12.40
2023-03-23T19:46:29.586Z,12.30
2023-03-23T19:52:33.329Z,12.10
2023-03-23T19:58:35.943Z,12.10
2023-03-23T20:04:39.881Z,12.00
2023-03-23T20:10:42.472Z,12.00
2023-03-23T20:16:45.340Z,11.90
2023-03-23T20:22:50.000Z,11.90
2023-03-23T20:28:55.183Z,11.90
2023-03-23T20:34:58.216Z,11.90
2023-03-23T20:41:03.044Z,11.80
2023-03-23T20:47:08.706Z,11.70
2023-03-23T20:53:11.023Z,11.70
2023-03-23T20:59:14.144Z,11.60
2023-03-23T21:05:16.676Z,11.60
2023-03-23T21:11:21.403Z,11.50
2023-03-23T21:17:23.690Z,11.60
2023-03-23T21:23:27.049Z,11.50
2023-03-23T21:29:29.733Z,11.50
2023-03-23T21:35:32.132Z,11.50
2023-03-23T21:41:41.982Z,11.50
2023-03-23T21:47:45.454Z,11.50
2023-03-23T21:53:47.961Z,11.40
2023-03-23T21:59:50.534Z,11.40
2023-03-23T22:05:57.916Z,11.30
2023-03-23T22:12:01.144Z,11.20
2023-03-23T22:18:03.634Z,11.10
2023-03-23T22:24:06.353Z,11.00
2023-03-23T22:30:09.208Z,10.90
2023-03-23T22:36:11.879Z,10.80
2023-03-23T22:42:14.391Z,10.70
2023-03-23T22:48:16.853Z,10.70
2023-03-23T22:54:19.275Z,10.90
2023-03-23T23:00:21.597Z,10.90
2023-03-23T23:06:25.403Z,10.80
2023-03-23T23:12:32.016Z,10.80
2023-03-23T23:18:35.747Z,10.80
2023-03-23T23:24:38.771Z,10.70
2023-03-23T23:30:41.270Z,10.70
2023-03-23T23:36:44.026Z,10.60
2023-03-23T23:42:48.611Z,10.60
2023-03-23T23:48:50.842Z,10.60
2023-03-23T23:54:53.332Z,10.60
